LTBA/IST METAR and TAF weather

Enter ICAO airport designator
Station Type Date Time Source
LTBA METAR 2018/12/15 01:50 UTC NOAA

LTBA 150150Z 09004KT 9999 SCT040 10/07 Q1020 NOSIG


Station Type Date Time Source
LTBA Decoded METAR 2018/12/15 01:50 UTC NOAA

Istanbul / Ataturk, Turkey (LTBA) 40-58N 028-49E 37M
Dec 14, 2018 - 08:50 PM EST / 2018.12.15 0150 UTC
Wind: from the E (090 degrees) at 5 MPH (4 KT):0
Visibility: greater than 7 mile(s):0
Sky conditions: partly cloudy
Temperature: 50 F (10 C)
Dew Point: 44 F (7 C)
Relative Humidity: 81%
Pressure (altimeter): 30.12 in. Hg (1020 hPa)
ob: LTBA 150150Z 09004KT 9999 SCT040 10/07 Q1020 NOSIG
cycle: 2

Station Type Date Time Source
LTBA TAF 2018/12/14 18:03 UTC NOAA

TAF LTBA 141640Z 1418/1524 VRB02KT 9999 SCT018 BKN070 PROB30 1421/1501 -RA
BECMG 1501/1504 CAVOK


Example: see airport list